createdAt,value
2023-04-22T00:02:49.910Z,10.70
2023-04-22T00:05:57.872Z,11.30
2023-04-22T00:08:57.560Z,12.10
2023-04-22T00:12:06.547Z,12.00
2023-04-22T00:15:14.234Z,15.10
2023-04-22T00:18:21.580Z,11.90
2023-04-22T00:21:30.702Z,9.80
2023-04-22T00:24:38.210Z,11.10
2023-04-22T00:27:45.865Z,11.10
2023-04-22T00:30:54.701Z,11.70
2023-04-22T00:34:02.098Z,13.90
2023-04-22T00:37:09.920Z,11.80
2023-04-22T00:40:18.881Z,14.20
2023-04-22T00:43:26.139Z,10.70
2023-04-22T00:46:33.893Z,10.70
2023-04-22T00:49:41.333Z,10.70
2023-04-22T00:52:50.518Z,11.20
2023-04-22T00:55:58.183Z,12.80
2023-04-22T00:59:05.795Z,10.10
2023-04-22T01:02:14.659Z,11.30
2023-04-22T01:05:22.011Z,15.50
2023-04-22T01:08:29.804Z,12.60
2023-04-22T01:11:38.759Z,12.90
2023-04-22T01:14:46.088Z,14.30
2023-04-22T01:17:53.669Z,11.80
2023-04-22T01:21:02.130Z,12.30
2023-04-22T01:24:10.272Z,13.60
2023-04-22T01:27:18.026Z,13.00
2023-04-22T01:30:25.232Z,11.00
2023-04-22T01:33:34.432Z,11.80
2023-04-22T01:36:42.213Z,12.30
2023-04-22T01:39:49.702Z,11.00
2023-04-22T01:42:58.859Z,14.00
2023-04-22T01:46:06.230Z,12.90
2023-04-22T01:49:13.597Z,14.00
2023-04-22T01:52:22.664Z,13.20
2023-04-22T01:55:30.093Z,13.00
2023-04-22T01:58:37.573Z,12.00
2023-04-22T02:01:46.354Z,12.10
2023-04-22T02:04:53.715Z,15.40
2023-04-22T02:08:01.054Z,14.80
2023-04-22T02:11:09.778Z,11.90
2023-04-22T02:14:17.408Z,15.40
2023-04-22T02:17:24.945Z,13.40
2023-04-22T02:20:31.999Z,14.10
2023-04-22T02:23:41.203Z,14.10
2023-04-22T02:26:48.394Z,15.90
2023-04-22T02:29:56.138Z,14.00
2023-04-22T02:33:05.378Z,13.80
2023-04-22T02:36:12.869Z,12.20
2023-04-22T02:39:20.278Z,13.40
2023-04-22T02:42:29.627Z,15.00
2023-04-22T02:45:37.122Z,14.30
2023-04-22T02:48:44.543Z,13.10
2023-04-22T02:51:53.397Z,13.70
2023-04-22T02:55:01.071Z,13.40
2023-04-22T02:58:08.505Z,11.60
2023-04-22T03:01:16.059Z,15.00
2023-04-22T03:04:25.621Z,12.80
2023-04-22T03:07:33.387Z,13.20
2023-04-22T03:10:41.032Z,13.10
2023-04-22T03:13:49.955Z,11.80
2023-04-22T03:16:57.231Z,13.10
2023-04-22T03:20:05.289Z,12.60
2023-04-22T03:23:14.566Z,12.00
2023-04-22T03:26:21.642Z,15.80
2023-04-22T03:29:29.383Z,12.30
2023-04-22T03:32:38.895Z,11.40
2023-04-22T03:35:46.078Z,12.70
2023-04-22T03:38:53.915Z,14.00
2023-04-22T03:42:01.257Z,12.50
2023-04-22T03:45:10.046Z,12.20
2023-04-22T03:48:17.707Z,13.30
2023-04-22T03:51:25.086Z,12.20
2023-04-22T03:54:33.929Z,14.70
2023-04-22T03:57:41.571Z,13.30
2023-04-22T04:00:48.732Z,12.20
2023-04-22T04:03:57.756Z,13.60
2023-04-22T04:07:05.202Z,16.20
2023-04-22T04:10:12.921Z,15.20
2023-04-22T04:13:21.737Z,14.20
2023-04-22T04:16:29.183Z,13.20
2023-04-22T04:19:36.585Z,12.60
2023-04-22T04:22:44.069Z,14.00
2023-04-22T04:25:52.553Z,13.30
2023-04-22T04:29:00.360Z,14.50
2023-04-22T04:32:08.108Z,15.60
2023-04-22T04:35:16.640Z,14.70
2023-04-22T04:38:24.553Z,12.00
2023-04-22T04:41:31.964Z,12.80
2023-04-22T04:44:40.715Z,15.00
2023-04-22T04:47:48.581Z,11.90
2023-04-22T04:50:56.078Z,14.00
2023-04-22T04:54:04.900Z,15.50
2023-04-22T04:57:12.680Z,15.20
2023-04-22T05:00:20.089Z,16.40
2023-04-22T05:03:29.142Z,12.80
2023-04-22T05:06:37.140Z,13.20
2023-04-22T05:09:44.987Z,13.60
2023-04-22T05:12:52.789Z,13.30
2023-04-22T05:16:01.592Z,11.60
2023-04-22T05:19:09.175Z,11.80
2023-04-22T05:22:17.426Z,14.80
2023-04-22T05:25:26.464Z,13.90
2023-04-22T05:28:33.976Z,14.30
2023-04-22T05:31:41.438Z,12.70
2023-04-22T05:34:50.224Z,15.30
2023-04-22T05:37:58.002Z,17.70
2023-04-22T05:41:05.208Z,13.80
2023-04-22T05:44:14.517Z,12.70
2023-04-22T05:47:22.821Z,9.60
2023-04-22T05:50:30.079Z,13.20
2023-04-22T05:53:37.786Z,14.90
2023-04-22T05:56:46.813Z,12.50
2023-04-22T05:59:54.464Z,12.90
2023-04-22T06:03:01.948Z,13.90
2023-04-22T06:06:11.006Z,11.00
2023-04-22T06:09:19.331Z,10.20
2023-04-22T06:12:26.801Z,11.90
2023-04-22T06:15:35.423Z,10.20
2023-04-22T06:18:43.252Z,13.00
2023-04-22T06:21:50.684Z,12.50
2023-04-22T06:24:59.725Z,12.90
2023-04-22T06:28:07.585Z,13.80
2023-04-22T06:31:15.786Z,13.30
2023-04-22T06:34:22.945Z,14.20
2023-04-22T06:37:32.620Z,10.50
2023-04-22T06:40:39.612Z,11.40
2023-04-22T06:43:47.680Z,10.90
2023-04-22T06:46:58.296Z,10.80
2023-04-22T06:50:05.915Z,11.90
2023-04-22T06:53:13.489Z,12.60
2023-04-22T06:56:22.159Z,11.00
2023-04-22T06:59:29.773Z,8.90
2023-04-22T07:02:37.847Z,11.40
2023-04-22T07:05:47.256Z,10.90
2023-04-22T07:08:54.610Z,12.20
2023-04-22T07:12:03.014Z,8.60
2023-04-22T07:15:12.213Z,9.30
2023-04-22T07:18:20.392Z,8.50
2023-04-22T07:21:27.434Z,8.30
2023-04-22T07:24:34.826Z,11.80
2023-04-22T07:27:44.252Z,13.10
2023-04-22T07:30:51.524Z,9.90
2023-04-22T07:33:59.292Z,9.30
2023-04-22T07:37:08.598Z,7.90
2023-04-22T07:40:16.473Z,8.00
2023-04-22T07:43:24.122Z,9.00
2023-04-22T07:46:33.358Z,10.10
2023-04-22T07:49:41.221Z,7.80
2023-04-22T07:52:49.432Z,8.20
2023-04-22T07:56:00.944Z,7.90
2023-04-22T07:58:58.318Z,10.20
2023-04-22T08:02:06.153Z,8.20
2023-04-22T08:05:13.895Z,7.80
2023-04-22T08:08:22.339Z,11.20
2023-04-22T08:11:29.837Z,11.80
2023-04-22T08:14:37.487Z,7.70
2023-04-22T08:17:46.225Z,8.50
2023-04-22T08:20:54.346Z,8.40
2023-04-22T08:24:01.924Z,10.50
2023-04-22T08:27:10.770Z,8.40
2023-04-22T08:30:18.549Z,8.60
2023-04-22T08:33:27.357Z,9.10
2023-04-22T08:36:36.488Z,12.40
2023-04-22T08:39:44.456Z,7.00
2023-04-22T08:42:51.869Z,9.70
2023-04-22T08:45:59.489Z,8.30
2023-04-22T08:49:08.132Z,11.10
2023-04-22T08:52:16.214Z,9.00
2023-04-22T08:55:25.762Z,8.40
2023-04-22T08:58:35.547Z,6.90
2023-04-22T09:01:42.968Z,7.50
2023-04-22T09:04:50.538Z,9.00
2023-04-22T09:07:59.811Z,7.90
2023-04-22T09:11:07.736Z,8.00
2023-04-22T09:14:14.828Z,8.10
2023-04-22T09:17:24.037Z,11.00
2023-04-22T09:20:32.521Z,9.00
2023-04-22T09:23:39.809Z,8.00
2023-04-22T09:26:47.438Z,8.90
2023-04-22T09:29:56.422Z,8.90
2023-04-22T09:33:04.121Z,7.90
2023-04-22T09:36:11.571Z,12.50
2023-04-22T09:39:20.371Z,8.70
2023-04-22T09:42:28.229Z,7.10
2023-04-22T09:45:35.930Z,8.10
2023-04-22T09:48:44.664Z,10.20
2023-04-22T09:51:52.562Z,8.40
2023-04-22T09:55:00.696Z,8.20
2023-04-22T09:58:09.489Z,8.70
2023-04-22T10:01:17.178Z,7.20
2023-04-22T10:04:24.645Z,9.70
2023-04-22T10:07:33.453Z,9.70
2023-04-22T10:10:41.128Z,8.00
2023-04-22T10:13:48.124Z,8.50
2023-04-22T10:16:55.836Z,6.30
2023-04-22T10:20:04.903Z,8.90
2023-04-22T10:23:12.036Z,8.30
2023-04-22T10:26:19.962Z,9.30
2023-04-22T10:29:29.555Z,7.00
2023-04-22T10:32:36.789Z,8.40
2023-04-22T10:35:44.748Z,8.60
2023-04-22T10:38:53.695Z,7.80
2023-04-22T10:42:01.586Z,9.80
2023-04-22T10:45:08.976Z,6.30
2023-04-22T10:48:18.288Z,8.30
2023-04-22T10:51:26.348Z,9.40
2023-04-22T10:54:33.774Z,7.30
2023-04-22T10:57:41.123Z,7.50
2023-04-22T11:00:53.856Z,9.00
2023-04-22T11:03:50.891Z,9.20
2023-04-22T11:06:58.680Z,6.80
2023-04-22T11:10:07.344Z,6.80
2023-04-22T11:13:14.371Z,7.50
2023-04-22T11:16:22.682Z,13.20
2023-04-22T11:19:31.855Z,17.80
2023-04-22T11:22:38.980Z,15.00
2023-04-22T11:25:46.981Z,30.10
2023-04-22T11:28:56.415Z,8.60
2023-04-22T11:32:03.808Z,5.50
2023-04-22T11:35:11.468Z,5.70
2023-04-22T11:38:18.909Z,4.70
2023-04-22T11:41:27.810Z,5.70
2023-04-22T11:44:35.625Z,6.20
2023-04-22T11:47:43.051Z,6.20
2023-04-22T11:50:52.030Z,4.90
2023-04-22T11:53:59.887Z,4.40
2023-04-22T11:57:07.550Z,5.30
2023-04-22T12:00:16.484Z,6.60
2023-04-22T12:03:24.667Z,6.10
2023-04-22T12:06:32.922Z,5.30
2023-04-22T12:09:42.209Z,4.20
2023-04-22T12:12:49.488Z,4.00
2023-04-22T12:15:56.844Z,2.90
2023-04-22T12:19:03.892Z,6.20
2023-04-22T12:22:12.742Z,1.60
2023-04-22T12:25:20.933Z,2.60
2023-04-22T12:28:28.099Z,2.90
2023-04-22T12:31:37.321Z,1.40
2023-04-22T12:34:44.919Z,2.20
2023-04-22T12:37:52.543Z,1.60
2023-04-22T12:41:01.719Z,1.60
2023-04-22T12:44:10.244Z,1.10
2023-04-22T12:47:18.911Z,0.90
2023-04-22T12:50:27.954Z,1.50
2023-04-22T12:53:35.567Z,1.70
2023-04-22T12:56:43.377Z,1.80
2023-04-22T12:59:50.611Z,2.40
2023-04-22T13:02:59.142Z,2.70
2023-04-22T13:06:06.747Z,2.70
2023-04-22T13:09:14.143Z,2.40
2023-04-22T13:12:22.753Z,4.50
2023-04-22T13:15:30.552Z,2.00
2023-04-22T13:18:38.007Z,2.20
2023-04-22T13:21:46.785Z,3.30
2023-04-22T13:24:54.699Z,3.00
2023-04-22T13:28:01.713Z,3.10
2023-04-22T13:31:10.881Z,1.60
2023-04-22T13:34:18.654Z,1.70
2023-04-22T13:37:25.699Z,1.60
2023-04-22T13:40:35.012Z,2.60
2023-04-22T13:43:42.613Z,3.80
2023-04-22T13:46:49.652Z,2.40
2023-04-22T13:49:57.397Z,2.40
2023-04-22T13:53:06.418Z,1.70
2023-04-22T13:56:13.555Z,1.70
2023-04-22T13:59:21.216Z,2.10
2023-04-22T14:02:29.976Z,3.50
2023-04-22T14:05:37.413Z,3.80
2023-04-22T14:08:45.271Z,3.30
2023-04-22T14:11:54.073Z,4.40
2023-04-22T14:15:01.722Z,1.80
2023-04-22T14:18:09.693Z,2.00
2023-04-22T14:21:18.472Z,4.30
2023-04-22T14:24:26.098Z,2.50
2023-04-22T14:27:33.739Z,5.40
2023-04-22T14:30:41.555Z,3.30
2023-04-22T14:33:50.680Z,5.40
2023-04-22T14:36:58.310Z,6.00
2023-04-22T14:40:06.449Z,3.20
2023-04-22T14:43:15.456Z,3.70
2023-04-22T14:46:23.178Z,4.10
2023-04-22T14:49:33.185Z,5.50
2023-04-22T14:52:31.535Z,3.20
2023-04-22T14:55:38.928Z,2.90
2023-04-22T14:58:46.826Z,5.00
2023-04-22T15:01:55.388Z,3.40
2023-04-22T15:05:03.446Z,3.60
2023-04-22T15:08:11.548Z,2.80
2023-04-22T15:11:19.279Z,3.40
2023-04-22T15:14:28.314Z,5.00
2023-04-22T15:17:35.818Z,6.60
2023-04-22T15:20:43.171Z,4.40
2023-04-22T15:23:52.092Z,5.30
2023-04-22T15:26:59.528Z,5.70
2023-04-22T15:30:07.537Z,5.20
2023-04-22T15:33:16.227Z,4.00
2023-04-22T15:36:23.689Z,3.20
2023-04-22T15:39:31.757Z,3.80
2023-04-22T15:42:40.769Z,4.40
2023-04-22T15:45:48.312Z,3.70
2023-04-22T15:48:55.914Z,4.20
2023-04-22T15:52:03.656Z,5.50
2023-04-22T15:55:12.781Z,3.70
2023-04-22T15:58:20.640Z,3.40
2023-04-22T16:01:27.667Z,5.10
2023-04-22T16:04:36.983Z,4.20
2023-04-22T16:07:44.858Z,3.90
2023-04-22T16:10:52.104Z,6.20
2023-04-22T16:14:01.572Z,6.60
2023-04-22T16:17:09.448Z,2.50
2023-04-22T16:20:16.801Z,3.70
2023-04-22T16:23:25.878Z,6.00
2023-04-22T16:26:33.642Z,4.10
2023-04-22T16:29:40.998Z,3.80
2023-04-22T16:32:48.433Z,3.40
2023-04-22T16:35:57.323Z,5.00
2023-04-22T16:39:04.699Z,2.20
2023-04-22T16:42:11.987Z,3.30
2023-04-22T16:45:21.258Z,3.40
2023-04-22T16:48:28.985Z,5.20
2023-04-22T16:51:36.622Z,4.80
2023-04-22T16:54:45.520Z,5.10
2023-04-22T16:57:53.618Z,7.60
2023-04-22T17:01:00.744Z,7.10
2023-04-22T17:04:09.909Z,5.90
2023-04-22T17:07:17.670Z,3.80
2023-04-22T17:10:24.766Z,3.60
2023-04-22T17:13:34.097Z,4.90
2023-04-22T17:16:41.970Z,2.90
2023-04-22T17:19:49.390Z,3.50
2023-04-22T17:22:56.876Z,3.50
2023-04-22T17:26:06.135Z,7.10
2023-04-22T17:29:13.943Z,5.50
2023-04-22T17:32:21.477Z,4.90
2023-04-22T17:35:30.297Z,4.80
2023-04-22T17:38:38.274Z,5.40
2023-04-22T17:41:45.634Z,7.20
2023-04-22T17:44:54.471Z,5.00
2023-04-22T17:48:02.311Z,5.90
2023-04-22T17:51:10.102Z,3.80
2023-04-22T17:54:19.261Z,4.00
2023-04-22T17:57:27.303Z,4.00
2023-04-22T18:00:34.940Z,6.30
2023-04-22T18:03:42.686Z,4.30
2023-04-22T18:06:52.146Z,4.50
2023-04-22T18:09:59.471Z,3.70
2023-04-22T18:13:07.407Z,5.40
2023-04-22T18:16:17.046Z,5.30
2023-04-22T18:19:24.218Z,7.60
2023-04-22T18:22:32.570Z,4.90
2023-04-22T18:25:42.553Z,4.70
2023-04-22T18:28:49.717Z,5.10
2023-04-22T18:31:57.479Z,5.10
2023-04-22T18:35:06.216Z,5.50
2023-04-22T18:38:13.406Z,4.00
2023-04-22T18:41:21.343Z,6.00
2023-04-22T18:44:28.840Z,4.50
2023-04-22T18:47:37.833Z,5.10
2023-04-22T18:50:44.858Z,6.40
2023-04-22T18:53:52.654Z,5.70
2023-04-22T18:57:01.416Z,7.10
2023-04-22T19:00:09.426Z,5.00
2023-04-22T19:03:17.048Z,5.60
2023-04-22T19:06:25.958Z,5.80
2023-04-22T19:09:33.475Z,4.50
2023-04-22T19:12:41.275Z,4.80
2023-04-22T19:15:49.978Z,5.80
2023-04-22T19:18:57.076Z,6.50
2023-04-22T19:22:04.712Z,5.30
2023-04-22T19:25:13.561Z,6.50
2023-04-22T19:28:20.949Z,4.50
2023-04-22T19:31:28.658Z,5.60
2023-04-22T19:34:35.859Z,7.80
2023-04-22T19:37:45.192Z,5.10
2023-04-22T19:40:53.044Z,5.00
2023-04-22T19:44:00.029Z,3.90
2023-04-22T19:47:09.436Z,5.40
2023-04-22T19:50:19.050Z,6.80
2023-04-22T19:53:26.468Z,4.50
2023-04-22T19:56:35.342Z,5.50
2023-04-22T19:59:43.080Z,6.80
2023-04-22T20:02:50.465Z,4.80
2023-04-22T20:05:59.360Z,5.60
2023-04-22T20:09:06.859Z,5.70
2023-04-22T20:12:14.404Z,5.50
2023-04-22T20:15:22.001Z,6.10
2023-04-22T20:18:31.093Z,5.30
2023-04-22T20:21:38.856Z,6.70
2023-04-22T20:24:46.445Z,5.40
2023-04-22T20:27:55.226Z,5.00
2023-04-22T20:31:02.913Z,5.30
2023-04-22T20:34:10.249Z,7.30
2023-04-22T20:37:18.840Z,4.50
2023-04-22T20:40:27.302Z,5.10
2023-04-22T20:43:34.317Z,5.30
2023-04-22T20:46:43.401Z,6.30
2023-04-22T20:49:51.291Z,5.80
2023-04-22T20:52:58.252Z,8.60
2023-04-22T20:56:05.576Z,7.50
2023-04-22T20:59:14.678Z,3.40
2023-04-22T21:02:21.823Z,5.40
2023-04-22T21:05:29.659Z,8.20
2023-04-22T21:08:38.517Z,5.40
2023-04-22T21:11:46.016Z,4.70
2023-04-22T21:14:53.746Z,8.20
2023-04-22T21:18:02.643Z,5.30
2023-04-22T21:21:10.145Z,4.30
2023-04-22T21:24:17.507Z,5.80
2023-04-22T21:27:26.322Z,4.80
2023-04-22T21:30:34.076Z,5.20
2023-04-22T21:33:41.136Z,5.20
2023-04-22T21:36:48.827Z,5.10
2023-04-22T21:39:58.152Z,6.60
2023-04-22T21:43:05.182Z,4.30
2023-04-22T21:46:12.492Z,5.00
2023-04-22T21:49:21.376Z,4.50
2023-04-22T21:52:28.440Z,8.40
2023-04-22T21:55:36.196Z,4.00
2023-04-22T21:58:45.261Z,3.10
2023-04-22T22:01:52.475Z,4.60
2023-04-22T22:05:00.256Z,2.90
2023-04-22T22:08:09.081Z,4.10
2023-04-22T22:11:27.695Z,2.80
2023-04-22T22:14:21.579Z,3.10
2023-04-22T22:17:30.149Z,3.30
2023-04-22T22:20:37.693Z,2.50
2023-04-22T22:23:45.756Z,4.70
2023-04-22T22:26:53.119Z,2.50
2023-04-22T22:30:02.027Z,5.90
2023-04-22T22:33:09.355Z,4.60
2023-04-22T22:36:17.108Z,4.10
2023-04-22T22:39:26.028Z,3.40
2023-04-22T22:42:33.617Z,1.70
2023-04-22T22:45:41.418Z,2.40
2023-04-22T22:48:49.732Z,2.60
2023-04-22T22:51:57.209Z,3.00
2023-04-22T22:55:04.913Z,5.70
2023-04-22T22:58:13.604Z,4.30
2023-04-22T23:01:21.019Z,3.70
2023-04-22T23:04:28.892Z,2.90
2023-04-22T23:07:36.001Z,4.80
2023-04-22T23:10:45.184Z,5.40
2023-04-22T23:13:53.165Z,4.10
2023-04-22T23:17:00.357Z,2.90
2023-04-22T23:20:09.706Z,2.60
2023-04-22T23:23:17.451Z,5.10
2023-04-22T23:26:24.436Z,4.00
2023-04-22T23:29:33.361Z,5.30
2023-04-22T23:32:40.717Z,5.90
2023-04-22T23:35:48.053Z,3.70
2023-04-22T23:38:58.044Z,4.00
2023-04-22T23:42:05.498Z,4.80
2023-04-22T23:45:12.923Z,2.60
2023-04-22T23:48:20.289Z,4.00
2023-04-22T23:51:29.213Z,5.90
2023-04-22T23:54:36.655Z,5.10
2023-04-22T23:57:44.358Z,4.90
